sensor_id;sensor_type;location;lat;lon;timestamp;P1;durP1;ratioP1;P2;durP2;ratioP2
11054;SDS011;5580;50.106;8.702;2022-09-09T00:00:37;3.47;;;2.67;;
11054;SDS011;5580;50.106;8.702;2022-09-09T00:05:39;5.80;;;2.67;;
11054;SDS011;5580;50.106;8.702;2022-09-09T00:08:17;4.63;;;3.00;;
11054;SDS011;5580;50.106;8.702;2022-09-09T00:10:45;5.07;;;2.77;;
11054;SDS011;5580;50.106;8.702;2022-09-09T00:13:22;6.13;;;2.90;;
11054;SDS011;5580;50.106;8.702;2022-09-09T00:15:59;5.23;;;2.97;;
11054;SDS011;5580;50.106;8.702;2022-09-09T00:18:36;4.43;;;2.63;;
11054;SDS011;5580;50.106;8.702;2022-09-09T00:21:15;4.90;;;3.17;;
11054;SDS011;5580;50.106;8.702;2022-09-09T00:23:47;7.47;;;3.20;;
11054;SDS011;5580;50.106;8.702;2022-09-09T00:29:03;7.57;;;3.20;;
11054;SDS011;5580;50.106;8.702;2022-09-09T00:31:44;4.63;;;2.70;;
11054;SDS011;5580;50.106;8.702;2022-09-09T00:36:38;6.50;;;3.03;;
11054;SDS011;5580;50.106;8.702;2022-09-09T00:39:04;5.73;;;2.80;;
11054;SDS011;5580;50.106;8.702;2022-09-09T00:44:34;5.53;;;2.90;;
11054;SDS011;5580;50.106;8.702;2022-09-09T00:47:04;6.43;;;3.00;;
11054;SDS011;5580;50.106;8.702;2022-09-09T00:52:22;7.13;;;3.30;;
11054;SDS011;5580;50.106;8.702;2022-09-09T00:57:46;2.87;;;2.57;;
11054;SDS011;5580;50.106;8.702;2022-09-09T01:06:02;6.50;;;3.03;;
11054;SDS011;5580;50.106;8.702;2022-09-09T01:16:56;5.03;;;3.20;;
11054;SDS011;5580;50.106;8.702;2022-09-09T01:22:33;7.40;;;3.23;;
11054;SDS011;5580;50.106;8.702;2022-09-09T01:25:29;6.67;;;3.03;;
11054;SDS011;5580;50.106;8.702;2022-09-09T01:28:11;6.90;;;3.50;;
11054;SDS011;5580;50.106;8.702;2022-09-09T01:30:42;9.20;;;3.47;;
11054;SDS011;5580;50.106;8.702;2022-09-09T01:33:09;6.83;;;3.30;;
11054;SDS011;5580;50.106;8.702;2022-09-09T01:38:10;9.53;;;3.30;;
11054;SDS011;5580;50.106;8.702;2022-09-09T01:40:35;4.63;;;3.20;;
11054;SDS011;5580;50.106;8.702;2022-09-09T01:43:01;6.60;;;3.63;;
11054;SDS011;5580;50.106;8.702;2022-09-09T01:45:28;8.17;;;3.20;;
11054;SDS011;5580;50.106;8.702;2022-09-09T01:47:54;10.10;;;3.47;;
11054;SDS011;5580;50.106;8.702;2022-09-09T01:50:21;6.17;;;3.10;;
11054;SDS011;5580;50.106;8.702;2022-09-09T01:52:48;7.03;;;3.33;;
11054;SDS011;5580;50.106;8.702;2022-09-09T01:55:18;5.30;;;3.30;;
11054;SDS011;5580;50.106;8.702;2022-09-09T02:00:23;5.60;;;2.97;;
11054;SDS011;5580;50.106;8.702;2022-09-09T02:02:56;6.13;;;3.30;;
11054;SDS011;5580;50.106;8.702;2022-09-09T02:05:36;4.27;;;3.07;;
11054;SDS011;5580;50.106;8.702;2022-09-09T02:13:11;4.50;;;3.20;;
11054;SDS011;5580;50.106;8.702;2022-09-09T02:16:00;3.87;;;3.17;;
11054;SDS011;5580;50.106;8.702;2022-09-09T02:18:40;5.53;;;3.40;;
11054;SDS011;5580;50.106;8.702;2022-09-09T02:21:12;7.87;;;3.20;;
11054;SDS011;5580;50.106;8.702;2022-09-09T02:23:39;5.60;;;3.27;;
11054;SDS011;5580;50.106;8.702;2022-09-09T02:26:07;6.97;;;3.53;;
11054;SDS011;5580;50.106;8.702;2022-09-09T02:28:35;7.27;;;3.57;;
11054;SDS011;5580;50.106;8.702;2022-09-09T02:31:02;7.70;;;3.50;;
11054;SDS011;5580;50.106;8.702;2022-09-09T02:33:29;5.23;;;3.33;;
11054;SDS011;5580;50.106;8.702;2022-09-09T02:35:59;6.13;;;3.50;;
11054;SDS011;5580;50.106;8.702;2022-09-09T02:38:29;5.60;;;3.50;;
11054;SDS011;5580;50.106;8.702;2022-09-09T02:41:00;6.70;;;3.37;;
11054;SDS011;5580;50.106;8.702;2022-09-09T02:43:30;7.93;;;3.60;;
11054;SDS011;5580;50.106;8.702;2022-09-09T02:46:03;7.50;;;3.33;;
11054;SDS011;5580;50.106;8.702;2022-09-09T02:48:47;5.87;;;3.70;;
11054;SDS011;5580;50.106;8.702;2022-09-09T02:54:10;6.67;;;3.53;;
11054;SDS011;5580;50.106;8.702;2022-09-09T02:56:40;8.97;;;3.80;;
11054;SDS011;5580;50.106;8.702;2022-09-09T02:59:10;9.20;;;3.73;;
11054;SDS011;5580;50.106;8.702;2022-09-09T03:01:36;4.47;;;3.47;;
11054;SDS011;5580;50.106;8.702;2022-09-09T03:04:04;8.00;;;3.50;;
11054;SDS011;5580;50.106;8.702;2022-09-09T03:06:30;10.40;;;3.73;;
11054;SDS011;5580;50.106;8.702;2022-09-09T03:08:56;7.80;;;3.63;;
11054;SDS011;5580;50.106;8.702;2022-09-09T03:11:22;8.60;;;3.80;;
11054;SDS011;5580;50.106;8.702;2022-09-09T03:13:47;5.83;;;3.67;;
11054;SDS011;5580;50.106;8.702;2022-09-09T03:16:14;7.70;;;3.70;;
11054;SDS011;5580;50.106;8.702;2022-09-09T03:18:40;7.23;;;3.77;;
11054;SDS011;5580;50.106;8.702;2022-09-09T03:21:05;7.93;;;3.97;;
11054;SDS011;5580;50.106;8.702;2022-09-09T03:23:31;5.07;;;3.53;;
11054;SDS011;5580;50.106;8.702;2022-09-09T03:25:57;7.47;;;3.60;;
11054;SDS011;5580;50.106;8.702;2022-09-09T03:28:23;9.30;;;3.77;;
11054;SDS011;5580;50.106;8.702;2022-09-09T03:30:58;6.23;;;3.43;;
11054;SDS011;5580;50.106;8.702;2022-09-09T03:33:24;8.13;;;3.60;;
11054;SDS011;5580;50.106;8.702;2022-09-09T03:35:50;9.10;;;3.80;;
11054;SDS011;5580;50.106;8.702;2022-09-09T03:38:16;8.60;;;3.77;;
11054;SDS011;5580;50.106;8.702;2022-09-09T03:40:48;7.27;;;3.73;;
11054;SDS011;5580;50.106;8.702;2022-09-09T03:43:22;7.10;;;3.77;;
11054;SDS011;5580;50.106;8.702;2022-09-09T03:45:48;7.83;;;3.43;;
11054;SDS011;5580;50.106;8.702;2022-09-09T03:48:15;8.67;;;3.90;;
11054;SDS011;5580;50.106;8.702;2022-09-09T03:50:47;10.47;;;3.83;;
11054;SDS011;5580;50.106;8.702;2022-09-09T03:53:15;7.63;;;3.90;;
11054;SDS011;5580;50.106;8.702;2022-09-09T03:55:45;5.93;;;3.33;;
11054;SDS011;5580;50.106;8.702;2022-09-09T03:58:15;5.20;;;3.13;;
11054;SDS011;5580;50.106;8.702;2022-09-09T04:00:43;9.80;;;4.57;;
11054;SDS011;5580;50.106;8.702;2022-09-09T04:03:17;9.23;;;3.87;;
11054;SDS011;5580;50.106;8.702;2022-09-09T04:05:43;9.20;;;4.20;;
11054;SDS011;5580;50.106;8.702;2022-09-09T04:08:08;9.47;;;3.67;;
11054;SDS011;5580;50.106;8.702;2022-09-09T04:10:34;6.27;;;3.37;;
11054;SDS011;5580;50.106;8.702;2022-09-09T04:13:03;5.97;;;3.70;;
11054;SDS011;5580;50.106;8.702;2022-09-09T04:15:30;8.53;;;3.77;;
11054;SDS011;5580;50.106;8.702;2022-09-09T04:17:56;9.60;;;3.60;;
11054;SDS011;5580;50.106;8.702;2022-09-09T04:20:22;8.13;;;3.73;;
11054;SDS011;5580;50.106;8.702;2022-09-09T04:22:48;5.50;;;3.50;;
11054;SDS011;5580;50.106;8.702;2022-09-09T04:25:14;8.40;;;3.83;;
11054;SDS011;5580;50.106;8.702;2022-09-09T04:27:40;9.03;;;3.80;;
11054;SDS011;5580;50.106;8.702;2022-09-09T04:30:05;8.97;;;3.83;;
11054;SDS011;5580;50.106;8.702;2022-09-09T04:32:33;7.67;;;4.10;;
11054;SDS011;5580;50.106;8.702;2022-09-09T04:34:58;6.03;;;3.77;;
11054;SDS011;5580;50.106;8.702;2022-09-09T04:37:24;10.10;;;3.70;;
11054;SDS011;5580;50.106;8.702;2022-09-09T04:39:50;7.03;;;3.77;;
11054;SDS011;5580;50.106;8.702;2022-09-09T04:42:16;4.17;;;3.30;;
11054;SDS011;5580;50.106;8.702;2022-09-09T04:44:44;7.37;;;3.40;;
11054;SDS011;5580;50.106;8.702;2022-09-09T04:47:09;5.57;;;3.17;;
11054;SDS011;5580;50.106;8.702;2022-09-09T04:49:35;7.87;;;3.37;;
11054;SDS011;5580;50.106;8.702;2022-09-09T04:52:01;6.57;;;3.20;;
11054;SDS011;5580;50.106;8.702;2022-09-09T04:54:28;5.63;;;3.33;;
11054;SDS011;5580;50.106;8.702;2022-09-09T04:56:54;6.23;;;3.33;;
11054;SDS011;5580;50.106;8.702;2022-09-09T04:59:20;6.43;;;3.33;;
11054;SDS011;5580;50.106;8.702;2022-09-09T05:01:46;5.77;;;3.20;;
11054;SDS011;5580;50.106;8.702;2022-09-09T05:04:12;8.97;;;3.60;;
11054;SDS011;5580;50.106;8.702;2022-09-09T05:06:40;7.13;;;3.37;;
11054;SDS011;5580;50.106;8.702;2022-09-09T05:09:06;8.17;;;3.27;;
11054;SDS011;5580;50.106;8.702;2022-09-09T05:11:32;8.37;;;3.50;;
11054;SDS011;5580;50.106;8.702;2022-09-09T05:14:01;7.10;;;3.50;;
11054;SDS011;5580;50.106;8.702;2022-09-09T05:16:26;6.97;;;3.07;;
11054;SDS011;5580;50.106;8.702;2022-09-09T05:18:52;5.53;;;3.13;;
11054;SDS011;5580;50.106;8.702;2022-09-09T05:21:18;5.03;;;3.03;;
11054;SDS011;5580;50.106;8.702;2022-09-09T05:23:46;6.90;;;3.57;;
11054;SDS011;5580;50.106;8.702;2022-09-09T05:26:13;7.03;;;3.47;;
11054;SDS011;5580;50.106;8.702;2022-09-09T05:28:40;6.47;;;3.13;;
11054;SDS011;5580;50.106;8.702;2022-09-09T05:31:07;7.77;;;3.43;;
11054;SDS011;5580;50.106;8.702;2022-09-09T05:33:36;9.90;;;3.63;;
11054;SDS011;5580;50.106;8.702;2022-09-09T05:36:05;7.40;;;3.10;;
11054;SDS011;5580;50.106;8.702;2022-09-09T05:38:33;5.93;;;3.20;;
11054;SDS011;5580;50.106;8.702;2022-09-09T05:40:59;6.83;;;3.13;;
11054;SDS011;5580;50.106;8.702;2022-09-09T05:43:26;7.63;;;3.40;;
11054;SDS011;5580;50.106;8.702;2022-09-09T05:46:02;5.70;;;3.13;;
11054;SDS011;5580;50.106;8.702;2022-09-09T05:48:43;5.67;;;3.10;;
11054;SDS011;5580;50.106;8.702;2022-09-09T05:51:15;7.90;;;3.30;;
11054;SDS011;5580;50.106;8.702;2022-09-09T05:53:46;7.23;;;3.43;;
11054;SDS011;5580;50.106;8.702;2022-09-09T05:58:42;9.10;;;3.67;;
11054;SDS011;5580;50.106;8.702;2022-09-09T06:01:18;7.87;;;3.40;;
11054;SDS011;5580;50.106;8.702;2022-09-09T06:03:45;7.77;;;3.40;;
11054;SDS011;5580;50.106;8.702;2022-09-09T06:06:12;6.47;;;3.10;;
11054;SDS011;5580;50.106;8.702;2022-09-09T06:08:41;7.17;;;3.33;;
11054;SDS011;5580;50.106;8.702;2022-09-09T06:11:12;7.43;;;2.87;;
11054;SDS011;5580;50.106;8.702;2022-09-09T06:13:42;8.93;;;3.40;;
11054;SDS011;5580;50.106;8.702;2022-09-09T06:16:09;5.93;;;3.27;;
11054;SDS011;5580;50.106;8.702;2022-09-09T06:18:36;7.23;;;3.07;;
11054;SDS011;5580;50.106;8.702;2022-09-09T06:21:03;7.93;;;3.30;;
11054;SDS011;5580;50.106;8.702;2022-09-09T06:23:31;8.73;;;3.30;;
11054;SDS011;5580;50.106;8.702;2022-09-09T06:26:05;5.17;;;3.10;;
11054;SDS011;5580;50.106;8.702;2022-09-09T06:28:40;6.93;;;3.27;;
11054;SDS011;5580;50.106;8.702;2022-09-09T06:31:08;7.40;;;3.23;;
11054;SDS011;5580;50.106;8.702;2022-09-09T06:33:38;7.23;;;2.90;;
11054;SDS011;5580;50.106;8.702;2022-09-09T06:36:16;6.47;;;2.87;;
11054;SDS011;5580;50.106;8.702;2022-09-09T06:38:46;6.83;;;2.80;;
11054;SDS011;5580;50.106;8.702;2022-09-09T06:41:13;7.83;;;3.17;;
11054;SDS011;5580;50.106;8.702;2022-09-09T06:43:40;6.87;;;2.67;;
11054;SDS011;5580;50.106;8.702;2022-09-09T06:48:39;9.00;;;3.00;;
11054;SDS011;5580;50.106;8.702;2022-09-09T06:51:10;6.33;;;3.00;;
11054;SDS011;5580;50.106;8.702;2022-09-09T06:53:38;7.43;;;3.20;;
11054;SDS011;5580;50.106;8.702;2022-09-09T06:58:46;8.13;;;3.20;;
11054;SDS011;5580;50.106;8.702;2022-09-09T07:01:17;6.10;;;2.90;;
11054;SDS011;5580;50.106;8.702;2022-09-09T07:03:54;5.07;;;2.70;;
11054;SDS011;5580;50.106;8.702;2022-09-09T07:06:24;5.00;;;2.67;;
11054;SDS011;5580;50.106;8.702;2022-09-09T07:08:52;8.07;;;2.73;;
11054;SDS011;5580;50.106;8.702;2022-09-09T07:11:20;7.30;;;2.80;;
11054;SDS011;5580;50.106;8.702;2022-09-09T07:13:47;5.30;;;3.00;;
11054;SDS011;5580;50.106;8.702;2022-09-09T07:16:15;9.90;;;3.27;;
11054;SDS011;5580;50.106;8.702;2022-09-09T07:18:42;5.87;;;2.80;;
11054;SDS011;5580;50.106;8.702;2022-09-09T07:21:09;6.20;;;2.90;;
11054;SDS011;5580;50.106;8.702;2022-09-09T07:23:37;7.77;;;3.40;;
11054;SDS011;5580;50.106;8.702;2022-09-09T07:26:07;6.77;;;3.03;;
11054;SDS011;5580;50.106;8.702;2022-09-09T07:28:34;9.10;;;3.20;;
11054;SDS011;5580;50.106;8.702;2022-09-09T07:31:00;8.33;;;3.40;;
11054;SDS011;5580;50.106;8.702;2022-09-09T07:33:30;7.63;;;3.17;;
11054;SDS011;5580;50.106;8.702;2022-09-09T07:36:05;6.07;;;3.20;;
11054;SDS011;5580;50.106;8.702;2022-09-09T07:38:43;6.03;;;3.43;;
11054;SDS011;5580;50.106;8.702;2022-09-09T07:41:11;7.90;;;3.40;;
11054;SDS011;5580;50.106;8.702;2022-09-09T07:43:42;8.27;;;2.83;;
11054;SDS011;5580;50.106;8.702;2022-09-09T07:46:10;8.43;;;2.97;;
11054;SDS011;5580;50.106;8.702;2022-09-09T07:48:37;7.83;;;3.03;;
11054;SDS011;5580;50.106;8.702;2022-09-09T07:51:07;5.60;;;3.13;;
11054;SDS011;5580;50.106;8.702;2022-09-09T07:53:33;6.17;;;3.00;;
11054;SDS011;5580;50.106;8.702;2022-09-09T07:56:09;7.23;;;3.13;;
11054;SDS011;5580;50.106;8.702;2022-09-09T07:58:38;10.43;;;3.60;;
11054;SDS011;5580;50.106;8.702;2022-09-09T08:01:08;9.20;;;3.23;;
11054;SDS011;5580;50.106;8.702;2022-09-09T08:03:35;6.80;;;3.10;;
11054;SDS011;5580;50.106;8.702;2022-09-09T08:06:02;5.43;;;3.10;;
11054;SDS011;5580;50.106;8.702;2022-09-09T08:08:28;7.23;;;3.00;;
11054;SDS011;5580;50.106;8.702;2022-09-09T08:11:00;7.80;;;3.57;;
11054;SDS011;5580;50.106;8.702;2022-09-09T08:13:32;8.97;;;3.57;;
11054;SDS011;5580;50.106;8.702;2022-09-09T08:16:13;8.37;;;3.50;;
11054;SDS011;5580;50.106;8.702;2022-09-09T08:18:41;8.90;;;3.17;;
11054;SDS011;5580;50.106;8.702;2022-09-09T08:23:36;8.20;;;3.40;;
11054;SDS011;5580;50.106;8.702;2022-09-09T08:26:13;7.63;;;3.50;;
11054;SDS011;5580;50.106;8.702;2022-09-09T08:28:40;7.70;;;3.70;;
11054;SDS011;5580;50.106;8.702;2022-09-09T08:31:26;8.77;;;3.80;;
11054;SDS011;5580;50.106;8.702;2022-09-09T08:33:54;7.70;;;3.87;;
11054;SDS011;5580;50.106;8.702;2022-09-09T08:36:21;12.37;;;4.20;;
11054;SDS011;5580;50.106;8.702;2022-09-09T08:38:53;8.30;;;3.40;;
11054;SDS011;5580;50.106;8.702;2022-09-09T08:44:13;9.67;;;3.67;;
11054;SDS011;5580;50.106;8.702;2022-09-09T08:52:09;11.30;;;3.80;;
11054;SDS011;5580;50.106;8.702;2022-09-09T08:54:40;9.57;;;3.73;;
11054;SDS011;5580;50.106;8.702;2022-09-09T08:57:08;7.87;;;3.53;;
11054;SDS011;5580;50.106;8.702;2022-09-09T08:59:38;11.07;;;3.83;;
11054;SDS011;5580;50.106;8.702;2022-09-09T09:12:10;9.37;;;3.80;;
11054;SDS011;5580;50.106;8.702;2022-09-09T09:14:45;7.60;;;3.50;;
11054;SDS011;5580;50.106;8.702;2022-09-09T09:17:14;10.63;;;3.60;;
11054;SDS011;5580;50.106;8.702;2022-09-09T09:19:44;10.53;;;3.60;;
11054;SDS011;5580;50.106;8.702;2022-09-09T09:30:14;7.20;;;3.13;;
11054;SDS011;5580;50.106;8.702;2022-09-09T09:32:41;10.07;;;3.50;;
11054;SDS011;5580;50.106;8.702;2022-09-09T09:35:18;7.53;;;3.30;;
11054;SDS011;5580;50.106;8.702;2022-09-09T09:37:44;7.43;;;3.23;;
11054;SDS011;5580;50.106;8.702;2022-09-09T09:40:12;7.63;;;3.47;;
11054;SDS011;5580;50.106;8.702;2022-09-09T09:42:53;8.77;;;3.40;;
11054;SDS011;5580;50.106;8.702;2022-09-09T09:45:27;11.07;;;3.60;;
11054;SDS011;5580;50.106;8.702;2022-09-09T09:47:58;6.77;;;3.57;;
11054;SDS011;5580;50.106;8.702;2022-09-09T09:50:28;9.73;;;3.53;;
11054;SDS011;5580;50.106;8.702;2022-09-09T09:53:00;7.37;;;3.37;;
11054;SDS011;5580;50.106;8.702;2022-09-09T09:55:33;9.50;;;3.43;;
11054;SDS011;5580;50.106;8.702;2022-09-09T09:58:05;10.13;;;4.00;;
11054;SDS011;5580;50.106;8.702;2022-09-09T10:00:32;10.43;;;3.87;;
11054;SDS011;5580;50.106;8.702;2022-09-09T10:03:00;8.00;;;3.50;;
11054;SDS011;5580;50.106;8.702;2022-09-09T10:05:27;9.13;;;3.40;;
11054;SDS011;5580;50.106;8.702;2022-09-09T10:16:13;13.97;;;6.70;;
11054;SDS011;5580;50.106;8.702;2022-09-09T10:18:48;15.70;;;6.77;;
11054;SDS011;5580;50.106;8.702;2022-09-09T10:32:00;15.67;;;6.70;;
11054;SDS011;5580;50.106;8.702;2022-09-09T10:35:04;12.20;;;4.40;;
11054;SDS011;5580;50.106;8.702;2022-09-09T10:40:25;10.53;;;4.00;;
11054;SDS011;5580;50.106;8.702;2022-09-09T10:43:04;6.77;;;3.27;;
11054;SDS011;5580;50.106;8.702;2022-09-09T10:56:24;9.60;;;3.17;;
11054;SDS011;5580;50.106;8.702;2022-09-09T10:59:34;12.37;;;3.13;;
11054;SDS011;5580;50.106;8.702;2022-09-09T11:01:48;8.13;;;3.17;;
11054;SDS011;5580;50.106;8.702;2022-09-09T11:04:42;13.07;;;3.70;;
11054;SDS011;5580;50.106;8.702;2022-09-09T11:07:16;9.07;;;3.43;;
11054;SDS011;5580;50.106;8.702;2022-09-09T11:09:52;9.27;;;3.50;;
11054;SDS011;5580;50.106;8.702;2022-09-09T11:12:24;10.63;;;3.87;;
11054;SDS011;5580;50.106;8.702;2022-09-09T11:14:57;12.03;;;3.80;;
11054;SDS011;5580;50.106;8.702;2022-09-09T11:17:42;11.90;;;3.70;;
11054;SDS011;5580;50.106;8.702;2022-09-09T11:20:14;11.40;;;3.73;;
11054;SDS011;5580;50.106;8.702;2022-09-09T11:31:00;9.47;;;3.90;;
11054;SDS011;5580;50.106;8.702;2022-09-09T11:38:53;11.17;;;3.80;;
11054;SDS011;5580;50.106;8.702;2022-09-09T11:42:22;11.13;;;4.00;;
11054;SDS011;5580;50.106;8.702;2022-09-09T11:44:49;7.03;;;3.67;;
11054;SDS011;5580;50.106;8.702;2022-09-09T11:47:26;9.93;;;3.60;;
11054;SDS011;5580;50.106;8.702;2022-09-09T11:52:44;9.10;;;3.67;;
11054;SDS011;5580;50.106;8.702;2022-09-09T11:55:24;7.43;;;3.70;;
11054;SDS011;5580;50.106;8.702;2022-09-09T12:00:47;7.37;;;3.00;;
11054;SDS011;5580;50.106;8.702;2022-09-09T12:05:59;7.97;;;2.83;;
11054;SDS011;5580;50.106;8.702;2022-09-09T12:08:34;6.13;;;3.00;;
11054;SDS011;5580;50.106;8.702;2022-09-09T12:11:01;7.83;;;3.03;;
11054;SDS011;5580;50.106;8.702;2022-09-09T12:13:29;5.87;;;2.43;;
11054;SDS011;5580;50.106;8.702;2022-09-09T12:15:57;6.43;;;2.50;;
11054;SDS011;5580;50.106;8.702;2022-09-09T12:18:37;6.00;;;2.67;;
11054;SDS011;5580;50.106;8.702;2022-09-09T12:21:25;6.47;;;2.50;;
11054;SDS011;5580;50.106;8.702;2022-09-09T12:24:01;4.43;;;2.20;;
11054;SDS011;5580;50.106;8.702;2022-09-09T12:29:25;8.67;;;2.70;;
11054;SDS011;5580;50.106;8.702;2022-09-09T12:36:55;6.17;;;2.60;;
11054;SDS011;5580;50.106;8.702;2022-09-09T12:39:28;6.83;;;3.03;;
11054;SDS011;5580;50.106;8.702;2022-09-09T12:41:58;9.40;;;3.27;;
11054;SDS011;5580;50.106;8.702;2022-09-09T12:44:25;8.80;;;2.83;;
11054;SDS011;5580;50.106;8.702;2022-09-09T12:46:55;8.03;;;2.87;;
11054;SDS011;5580;50.106;8.702;2022-09-09T12:49:45;6.07;;;2.53;;
11054;SDS011;5580;50.106;8.702;2022-09-09T12:52:14;6.87;;;2.87;;
11054;SDS011;5580;50.106;8.702;2022-09-09T12:54:47;10.90;;;3.37;;
11054;SDS011;5580;50.106;8.702;2022-09-09T12:57:16;8.83;;;2.80;;
11054;SDS011;5580;50.106;8.702;2022-09-09T12:59:43;9.93;;;3.23;;
11054;SDS011;5580;50.106;8.702;2022-09-09T13:02:20;9.30;;;3.47;;
11054;SDS011;5580;50.106;8.702;2022-09-09T13:04:47;9.73;;;2.97;;
11054;SDS011;5580;50.106;8.702;2022-09-09T13:07:15;7.67;;;3.13;;
11054;SDS011;5580;50.106;8.702;2022-09-09T13:09:42;6.20;;;2.67;;
11054;SDS011;5580;50.106;8.702;2022-09-09T13:12:16;7.03;;;2.90;;
11054;SDS011;5580;50.106;8.702;2022-09-09T13:14:45;6.43;;;2.67;;
11054;SDS011;5580;50.106;8.702;2022-09-09T13:17:26;6.53;;;2.70;;
11054;SDS011;5580;50.106;8.702;2022-09-09T13:19:55;7.57;;;2.90;;
11054;SDS011;5580;50.106;8.702;2022-09-09T13:22:31;5.90;;;3.23;;
11054;SDS011;5580;50.106;8.702;2022-09-09T13:25:17;12.10;;;3.50;;
11054;SDS011;5580;50.106;8.702;2022-09-09T13:27:58;8.57;;;3.10;;
11054;SDS011;5580;50.106;8.702;2022-09-09T13:30:32;8.90;;;3.10;;
11054;SDS011;5580;50.106;8.702;2022-09-09T13:33:17;4.20;;;2.40;;
11054;SDS011;5580;50.106;8.702;2022-09-09T13:35:47;3.10;;;2.43;;
11054;SDS011;5580;50.106;8.702;2022-09-09T13:38:15;4.87;;;2.40;;
11054;SDS011;5580;50.106;8.702;2022-09-09T13:40:54;8.33;;;2.77;;
11054;SDS011;5580;50.106;8.702;2022-09-09T13:43:22;4.30;;;1.73;;
11054;SDS011;5580;50.106;8.702;2022-09-09T13:45:54;6.97;;;2.40;;
11054;SDS011;5580;50.106;8.702;2022-09-09T13:48:27;5.77;;;2.53;;
11054;SDS011;5580;50.106;8.702;2022-09-09T13:50:59;5.83;;;2.20;;
11054;SDS011;5580;50.106;8.702;2022-09-09T13:53:30;2.47;;;1.50;;
11054;SDS011;5580;50.106;8.702;2022-09-09T13:55:56;4.53;;;2.30;;
11054;SDS011;5580;50.106;8.702;2022-09-09T13:58:22;4.07;;;1.73;;
11054;SDS011;5580;50.106;8.702;2022-09-09T14:00:50;4.13;;;1.53;;
11054;SDS011;5580;50.106;8.702;2022-09-09T14:03:17;2.70;;;1.30;;
11054;SDS011;5580;50.106;8.702;2022-09-09T14:05:43;4.77;;;2.00;;
11054;SDS011;5580;50.106;8.702;2022-09-09T14:08:12;4.83;;;1.57;;
11054;SDS011;5580;50.106;8.702;2022-09-09T14:10:45;1.90;;;1.53;;
11054;SDS011;5580;50.106;8.702;2022-09-09T14:13:10;1.90;;;1.37;;
11054;SDS011;5580;50.106;8.702;2022-09-09T14:15:37;3.73;;;1.60;;
11054;SDS011;5580;50.106;8.702;2022-09-09T14:18:03;3.30;;;1.40;;
11054;SDS011;5580;50.106;8.702;2022-09-09T14:20:28;5.00;;;1.60;;
11054;SDS011;5580;50.106;8.702;2022-09-09T14:22:54;3.17;;;1.67;;
11054;SDS011;5580;50.106;8.702;2022-09-09T14:25:22;3.20;;;1.90;;
11054;SDS011;5580;50.106;8.702;2022-09-09T14:27:48;5.33;;;2.10;;
11054;SDS011;5580;50.106;8.702;2022-09-09T14:30:14;3.13;;;1.83;;
11054;SDS011;5580;50.106;8.702;2022-09-09T14:32:39;4.67;;;2.00;;
11054;SDS011;5580;50.106;8.702;2022-09-09T14:35:05;3.20;;;1.23;;
11054;SDS011;5580;50.106;8.702;2022-09-09T14:37:32;4.23;;;1.73;;
11054;SDS011;5580;50.106;8.702;2022-09-09T14:39:57;3.43;;;1.50;;
11054;SDS011;5580;50.106;8.702;2022-09-09T14:42:23;5.40;;;2.17;;
11054;SDS011;5580;50.106;8.702;2022-09-09T14:44:49;4.83;;;2.30;;
11054;SDS011;5580;50.106;8.702;2022-09-09T14:47:14;5.73;;;2.10;;
11054;SDS011;5580;50.106;8.702;2022-09-09T14:49:40;4.37;;;2.50;;
11054;SDS011;5580;50.106;8.702;2022-09-09T14:52:05;5.33;;;2.67;;
11054;SDS011;5580;50.106;8.702;2022-09-09T14:54:31;4.87;;;1.80;;
11054;SDS011;5580;50.106;8.702;2022-09-09T14:56:57;4.70;;;2.57;;
11054;SDS011;5580;50.106;8.702;2022-09-09T14:59:23;3.00;;;2.10;;
11054;SDS011;5580;50.106;8.702;2022-09-09T15:01:49;6.20;;;2.00;;
11054;SDS011;5580;50.106;8.702;2022-09-09T15:04:15;4.50;;;2.03;;
11054;SDS011;5580;50.106;8.702;2022-09-09T15:06:42;3.20;;;1.93;;
11054;SDS011;5580;50.106;8.702;2022-09-09T15:09:09;5.80;;;1.80;;
11054;SDS011;5580;50.106;8.702;2022-09-09T15:11:35;5.67;;;2.30;;
11054;SDS011;5580;50.106;8.702;2022-09-09T15:14:03;3.13;;;2.00;;
11054;SDS011;5580;50.106;8.702;2022-09-09T15:16:29;4.30;;;1.83;;
11054;SDS011;5580;50.106;8.702;2022-09-09T15:18:57;3.23;;;1.40;;
11054;SDS011;5580;50.106;8.702;2022-09-09T15:21:24;1.53;;;1.33;;
11054;SDS011;5580;50.106;8.702;2022-09-09T15:23:51;4.27;;;1.87;;
11054;SDS011;5580;50.106;8.702;2022-09-09T15:26:17;2.33;;;1.30;;
11054;SDS011;5580;50.106;8.702;2022-09-09T15:28:46;3.30;;;1.40;;
11054;SDS011;5580;50.106;8.702;2022-09-09T15:33:47;4.57;;;1.80;;
11054;SDS011;5580;50.106;8.702;2022-09-09T15:36:17;5.70;;;2.00;;
11054;SDS011;5580;50.106;8.702;2022-09-09T15:38:45;4.07;;;1.70;;
11054;SDS011;5580;50.106;8.702;2022-09-09T15:41:11;4.23;;;1.80;;
11054;SDS011;5580;50.106;8.702;2022-09-09T15:43:37;4.33;;;1.80;;
11054;SDS011;5580;50.106;8.702;2022-09-09T15:48:41;2.80;;;2.00;;
11054;SDS011;5580;50.106;8.702;2022-09-09T15:51:09;5.00;;;2.00;;
11054;SDS011;5580;50.106;8.702;2022-09-09T15:53:35;4.57;;;2.30;;
11054;SDS011;5580;50.106;8.702;2022-09-09T15:56:04;5.20;;;1.87;;
11054;SDS011;5580;50.106;8.702;2022-09-09T15:58:33;5.03;;;1.60;;
11054;SDS011;5580;50.106;8.702;2022-09-09T16:01:06;4.23;;;1.60;;
11054;SDS011;5580;50.106;8.702;2022-09-09T16:03:36;6.53;;;1.97;;
11054;SDS011;5580;50.106;8.702;2022-09-09T16:06:03;3.33;;;1.67;;
11054;SDS011;5580;50.106;8.702;2022-09-09T16:08:33;3.23;;;1.63;;
11054;SDS011;5580;50.106;8.702;2022-09-09T16:11:19;3.33;;;1.67;;
11054;SDS011;5580;50.106;8.702;2022-09-09T16:13:47;4.90;;;2.40;;
11054;SDS011;5580;50.106;8.702;2022-09-09T16:16:14;2.17;;;1.93;;
11054;SDS011;5580;50.106;8.702;2022-09-09T16:18:54;2.90;;;2.13;;
11054;SDS011;5580;50.106;8.702;2022-09-09T16:23:54;8.90;;;2.60;;
11054;SDS011;5580;50.106;8.702;2022-09-09T16:26:20;6.37;;;2.07;;
11054;SDS011;5580;50.106;8.702;2022-09-09T16:28:47;5.47;;;1.87;;
11054;SDS011;5580;50.106;8.702;2022-09-09T16:31:15;2.30;;;1.80;;
11054;SDS011;5580;50.106;8.702;2022-09-09T16:33:47;5.93;;;1.97;;
11054;SDS011;5580;50.106;8.702;2022-09-09T16:36:14;2.70;;;1.90;;
11054;SDS011;5580;50.106;8.702;2022-09-09T16:38:41;6.13;;;2.20;;
11054;SDS011;5580;50.106;8.702;2022-09-09T16:41:08;3.53;;;2.00;;
11054;SDS011;5580;50.106;8.702;2022-09-09T16:43:35;7.83;;;2.83;;
11054;SDS011;5580;50.106;8.702;2022-09-09T16:46:14;7.37;;;2.60;;
11054;SDS011;5580;50.106;8.702;2022-09-09T16:48:42;3.87;;;2.00;;
11054;SDS011;5580;50.106;8.702;2022-09-09T16:51:14;7.07;;;2.43;;
11054;SDS011;5580;50.106;8.702;2022-09-09T16:53:41;3.47;;;2.20;;
11054;SDS011;5580;50.106;8.702;2022-09-09T16:56:08;7.03;;;2.70;;
11054;SDS011;5580;50.106;8.702;2022-09-09T16:58:37;5.03;;;2.23;;
11054;SDS011;5580;50.106;8.702;2022-09-09T17:01:03;5.80;;;2.63;;
11054;SDS011;5580;50.106;8.702;2022-09-09T17:03:29;3.63;;;2.23;;
11054;SDS011;5580;50.106;8.702;2022-09-09T17:05:56;3.50;;;2.10;;
11054;SDS011;5580;50.106;8.702;2022-09-09T17:08:23;6.07;;;2.83;;
11054;SDS011;5580;50.106;8.702;2022-09-09T17:10:49;5.93;;;2.50;;
11054;SDS011;5580;50.106;8.702;2022-09-09T17:13:15;6.67;;;2.87;;
11054;SDS011;5580;50.106;8.702;2022-09-09T17:15:43;6.23;;;2.77;;
11054;SDS011;5580;50.106;8.702;2022-09-09T17:18:09;7.37;;;3.00;;
11054;SDS011;5580;50.106;8.702;2022-09-09T17:20:36;7.40;;;2.67;;
11054;SDS011;5580;50.106;8.702;2022-09-09T17:23:06;4.50;;;2.30;;
11054;SDS011;5580;50.106;8.702;2022-09-09T17:25:32;4.47;;;2.43;;
11054;SDS011;5580;50.106;8.702;2022-09-09T17:27:58;6.63;;;2.83;;
11054;SDS011;5580;50.106;8.702;2022-09-09T17:30:24;7.43;;;2.70;;
11054;SDS011;5580;50.106;8.702;2022-09-09T17:32:51;3.63;;;2.07;;
11054;SDS011;5580;50.106;8.702;2022-09-09T17:35:16;5.57;;;2.80;;
11054;SDS011;5580;50.106;8.702;2022-09-09T17:37:42;4.70;;;2.53;;
11054;SDS011;5580;50.106;8.702;2022-09-09T17:40:09;4.37;;;2.67;;
11054;SDS011;5580;50.106;8.702;2022-09-09T17:42:35;6.20;;;2.80;;
11054;SDS011;5580;50.106;8.702;2022-09-09T17:45:00;5.63;;;2.67;;
11054;SDS011;5580;50.106;8.702;2022-09-09T17:47:26;3.97;;;2.00;;
11054;SDS011;5580;50.106;8.702;2022-09-09T17:49:53;6.30;;;2.80;;